Time;durP1;ratioP1;P1;durP2;ratioP2;P2;SDS_P1;SDS_P2;PMS_P1;PMS_P2;Temp;Humidity;BMP_temperature;BMP_pressure;BME280_temperature;BME280_humidity;BME280_pressure;Samples;Min_cycle;Max_cycle;Signal;HPM_P1;HPM_P2
2022/05/28 00:00:41;;;;;;;8.70;1.58;;;;;;;;;;5280470;28;20336;-69
2022/05/28 00:03:12;;;;;;;8.38;1.52;;;;;;;;;;5280978;28;20025;-67
2022/05/28 00:05:44;;;;;;;8.10;1.13;;;;;;;;;;5281040;28;20066;-67
2022/05/28 00:08:15;;;;;;;11.00;1.20;;;;;;;;;;5280155;28;20263;-67
2022/05/28 00:10:46;;;;;;;13.68;1.38;;;;;;;;;;5280897;28;20031;-66
2022/05/28 00:13:17;;;;;;;9.95;1.08;;;;;;;;;;5280264;28;20387;-67
2022/05/28 00:15:49;;;;;;;11.65;1.70;;;;;;;;;;5281039;28;20025;-66
2022/05/28 00:18:20;;;;;;;9.10;1.25;;;;;;;;;;5280422;28;20352;-67
2022/05/28 00:20:52;;;;;;;11.18;1.77;;;;;;;;;;5283952;28;20028;-67
2022/05/28 00:23:23;;;;;;;11.80;1.95;;;;;;;;;;5284701;28;20649;-66
2022/05/28 00:25:54;;;;;;;12.38;1.55;;;;;;;;;;5285177;28;20384;-67
2022/05/28 00:28:25;;;;;;;9.23;1.50;;;;;;;;;;5283964;28;20039;-67
2022/05/28 00:30:57;;;;;;;12.20;1.85;;;;;;;;;;5285298;28;20282;-67
2022/05/28 00:33:30;;;;;;;13.00;1.48;;;;;;;;;;5284527;28;20266;-67
2022/05/28 00:36:03;;;;;;;11.00;1.92;;;;;;;;;;5284383;28;20108;-67
2022/05/28 00:38:35;;;;;;;12.50;1.70;;;;;;;;;;5284571;28;20030;-67
2022/05/28 00:41:06;;;;;;;10.35;1.38;;;;;;;;;;5284513;28;20033;-67
2022/05/28 00:43:38;;;;;;;12.07;1.73;;;;;;;;;;5283949;28;20600;-67
2022/05/28 00:46:12;;;;;;;10.60;1.90;;;;;;;;;;5284691;28;20379;-67
2022/05/28 00:48:45;;;;;;;13.38;1.63;;;;;;;;;;5283959;28;20020;-67
2022/05/28 00:51:25;;;;;;;15.80;1.88;;;;;;;;;;5284545;28;20021;-67
2022/05/28 00:53:59;;;;;;;8.65;1.48;;;;;;;;;;5284721;28;20022;-67
2022/05/28 00:56:30;;;;;;;12.07;2.08;;;;;;;;;;5283284;28;20028;-67
2022/05/28 00:59:02;;;;;;;9.57;1.50;;;;;;;;;;5284579;28;20035;-67
2022/05/28 01:01:34;;;;;;;11.38;2.08;;;;;;;;;;5284299;28;20016;-67
2022/05/28 01:04:23;;;;;;;12.40;2.28;;;;;;;;;;5283496;28;20029;-66
2022/05/28 01:06:58;;;;;;;14.57;2.10;;;;;;;;;;5284426;28;20054;-67
2022/05/28 01:09:34;;;;;;;13.05;2.33;;;;;;;;;;5283140;28;20086;-67
2022/05/28 01:12:05;;;;;;;12.52;1.38;;;;;;;;;;5284239;28;20471;-67
2022/05/28 01:14:47;;;;;;;11.23;2.58;;;;;;;;;;5284006;28;20063;-67
2022/05/28 01:17:26;;;;;;;15.52;1.90;;;;;;;;;;5282991;28;20086;-67
2022/05/28 01:20:02;;;;;;;8.32;1.65;;;;;;;;;;5284241;28;20067;-67
2022/05/28 01:22:44;;;;;;;10.65;1.98;;;;;;;;;;5283880;28;20337;-67
2022/05/28 01:25:20;;;;;;;13.90;2.80;;;;;;;;;;5282947;28;20419;-67
2022/05/28 01:27:54;;;;;;;10.60;1.70;;;;;;;;;;5283966;28;20127;-69
2022/05/28 01:30:26;;;;;;;10.88;1.50;;;;;;;;;;5283046;28;20033;-67
2022/05/28 01:32:58;;;;;;;11.57;1.85;;;;;;;;;;5283218;28;20442;-67
2022/05/28 01:35:30;;;;;;;8.20;1.58;;;;;;;;;;5283165;28;20024;-67
2022/05/28 01:38:02;;;;;;;9.65;1.75;;;;;;;;;;5282682;28;20043;-67
2022/05/28 01:40:34;;;;;;;11.15;1.90;;;;;;;;;;5283616;28;20487;-67
2022/05/28 01:43:07;;;;;;;13.50;1.90;;;;;;;;;;5283354;28;20017;-67
2022/05/28 01:45:39;;;;;;;12.05;1.88;;;;;;;;;;5282813;28;20520;-66
2022/05/28 01:48:10;;;;;;;15.23;1.98;;;;;;;;;;5283321;28;20024;-67
2022/05/28 01:50:43;;;;;;;13.90;2.00;;;;;;;;;;5283295;28;20087;-67
2022/05/28 01:54:07;;;;;;;12.35;2.33;;;;;;;;;;5282577;28;20143;-67
2022/05/28 01:56:07;;;;;;;9.73;1.95;;;;;;;;;;5283073;28;20472;-67
2022/05/28 01:58:39;;;;;;;16.25;2.05;;;;;;;;;;5282850;28;20024;-67
2022/05/28 02:01:10;;;;;;;10.23;1.77;;;;;;;;;;5282467;28;20074;-67
2022/05/28 02:03:43;;;;;;;9.90;1.77;;;;;;;;;;5283290;28;20009;-67
2022/05/28 02:06:14;;;;;;;14.65;2.28;;;;;;;;;;5282295;28;20062;-67
2022/05/28 02:08:46;;;;;;;10.30;2.05;;;;;;;;;;5282992;28;20028;-68
2022/05/28 02:11:17;;;;;;;11.55;2.00;;;;;;;;;;5282940;28;20479;-67
2022/05/28 02:14:09;;;;;;;11.15;1.48;;;;;;;;;;5282108;28;20078;-67
2022/05/28 02:16:59;;;;;;;14.60;2.20;;;;;;;;;;5282415;28;20271;-68
2022/05/28 02:19:33;;;;;;;10.98;1.95;;;;;;;;;;5282394;28;20428;-68
2022/05/28 02:22:10;;;;;;;10.32;2.35;;;;;;;;;;5282120;28;20017;-67
2022/05/28 02:24:44;;;;;;;14.80;2.08;;;;;;;;;;5282635;28;20071;-67
2022/05/28 02:27:17;;;;;;;10.73;2.95;;;;;;;;;;5281797;28;20432;-68
2022/05/28 02:29:49;;;;;;;12.10;1.98;;;;;;;;;;5282690;28;20075;-68
2022/05/28 02:32:21;;;;;;;11.57;1.60;;;;;;;;;;5282179;28;20052;-68
2022/05/28 02:34:52;;;;;;;11.98;1.85;;;;;;;;;;5282255;28;20115;-68
2022/05/28 02:37:24;;;;;;;9.85;2.53;;;;;;;;;;5282244;28;20104;-67
2022/05/28 02:39:57;;;;;;;13.05;2.22;;;;;;;;;;5282589;28;20036;-67
2022/05/28 02:42:28;;;;;;;10.57;2.42;;;;;;;;;;5280449;28;20020;-68
2022/05/28 02:44:59;;;;;;;10.45;1.83;;;;;;;;;;5282654;28;20379;-68
2022/05/28 02:47:30;;;;;;;12.30;2.08;;;;;;;;;;5281944;28;20263;-68
2022/05/28 02:50:02;;;;;;;10.23;1.83;;;;;;;;;;5281465;28;20078;-69
2022/05/28 02:52:33;;;;;;;9.02;1.60;;;;;;;;;;5281881;28;20278;-69
2022/05/28 02:55:05;;;;;;;9.88;1.85;;;;;;;;;;5281396;28;20044;-68
2022/05/28 02:57:36;;;;;;;12.32;1.58;;;;;;;;;;5281817;28;20275;-68
2022/05/28 03:00:07;;;;;;;8.35;1.70;;;;;;;;;;5282058;28;20391;-68
2022/05/28 03:02:39;;;;;;;14.32;2.13;;;;;;;;;;5281291;28;20348;-68
2022/05/28 03:05:11;;;;;;;7.95;1.58;;;;;;;;;;5281834;28;20379;-68
2022/05/28 03:07:42;;;;;;;12.65;2.08;;;;;;;;;;5281721;28;20329;-68
2022/05/28 03:10:13;;;;;;;13.68;1.90;;;;;;;;;;5281185;28;20056;-68
2022/05/28 03:12:45;;;;;;;11.95;1.63;;;;;;;;;;5281734;28;20263;-68
2022/05/28 03:15:16;;;;;;;7.75;1.27;;;;;;;;;;5281572;28;20275;-68
2022/05/28 03:17:47;;;;;;;9.45;1.55;;;;;;;;;;5280936;28;20456;-67
2022/05/28 03:20:18;;;;;;;13.27;2.20;;;;;;;;;;5281414;28;20379;-67
2022/05/28 03:22:49;;;;;;;10.50;1.40;;;;;;;;;;5282155;28;20104;-67
2022/05/28 03:25:21;;;;;;;11.68;1.30;;;;;;;;;;5280448;28;20059;-67
2022/05/28 03:27:52;;;;;;;7.95;1.58;;;;;;;;;;5281758;28;20626;-67
2022/05/28 03:30:23;;;;;;;11.93;1.77;;;;;;;;;;5280584;28;20020;-67
2022/05/28 03:32:55;;;;;;;9.93;1.00;;;;;;;;;;5281641;28;20279;-67
2022/05/28 03:35:26;;;;;;;12.15;2.13;;;;;;;;;;5281228;28;20017;-67
2022/05/28 03:37:57;;;;;;;10.48;1.75;;;;;;;;;;5281221;28;20315;-67
2022/05/28 03:40:28;;;;;;;12.52;1.55;;;;;;;;;;5281099;28;20028;-67
2022/05/28 03:43:00;;;;;;;12.73;1.30;;;;;;;;;;5281640;28;20028;-66
2022/05/28 03:45:31;;;;;;;11.25;2.03;;;;;;;;;;5280652;28;20016;-67
2022/05/28 03:48:03;;;;;;;11.20;1.35;;;;;;;;;;5281568;28;20387;-66
2022/05/28 03:50:34;;;;;;;10.77;1.48;;;;;;;;;;5281117;28;20025;-66
2022/05/28 03:53:06;;;;;;;12.38;1.40;;;;;;;;;;5280491;28;20379;-67
2022/05/28 03:55:38;;;;;;;16.15;1.75;;;;;;;;;;5280984;28;21354;-67
2022/05/28 03:58:09;;;;;;;14.95;2.22;;;;;;;;;;5280994;28;20024;-68
2022/05/28 04:00:41;;;;;;;15.38;1.38;;;;;;;;;;5280413;28;20025;-67
2022/05/28 04:03:12;;;;;;;10.32;1.63;;;;;;;;;;5280971;28;20013;-67
2022/05/28 04:05:43;;;;;;;9.13;1.13;;;;;;;;;;5280143;28;20029;-67
2022/05/28 04:08:14;;;;;;;13.73;1.77;;;;;;;;;;5280752;28;20044;-67
2022/05/28 04:10:45;;;;;;;11.70;1.23;;;;;;;;;;5280994;28;20285;-67
2022/05/28 04:13:16;;;;;;;15.07;1.60;;;;;;;;;;5280063;28;20267;-67
2022/05/28 04:15:48;;;;;;;12.40;1.60;;;;;;;;;;5280698;28;20266;-67
2022/05/28 04:18:19;;;;;;;12.23;1.48;;;;;;;;;;5280236;28;20103;-67
2022/05/28 04:20:51;;;;;;;13.68;2.10;;;;;;;;;;5280237;28;20012;-67
2022/05/28 04:23:22;;;;;;;16.88;2.45;;;;;;;;;;5280198;28;20373;-67
2022/05/28 04:25:54;;;;;;;15.27;2.03;;;;;;;;;;5281176;28;20021;-67
2022/05/28 04:28:25;;;;;;;10.00;1.10;;;;;;;;;;5279625;28;20032;-67
2022/05/28 04:30:56;;;;;;;11.80;1.67;;;;;;;;;;5280840;28;20078;-66
2022/05/28 04:33:27;;;;;;;12.07;1.60;;;;;;;;;;5279640;28;20024;-67
2022/05/28 04:35:59;;;;;;;15.27;1.40;;;;;;;;;;5280789;28;20063;-66
2022/05/28 04:38:30;;;;;;;16.35;2.38;;;;;;;;;;5280196;28;20430;-67
2022/05/28 04:41:01;;;;;;;8.52;1.20;;;;;;;;;;5280005;28;20505;-67
2022/05/28 04:43:32;;;;;;;7.78;1.45;;;;;;;;;;5280330;28;20271;-68
2022/05/28 04:46:03;;;;;;;13.75;1.15;;;;;;;;;;5280780;28;20278;-68
2022/05/28 04:48:34;;;;;;;12.55;1.85;;;;;;;;;;5279809;28;20347;-68
2022/05/28 04:51:06;;;;;;;12.82;1.52;;;;;;;;;;5280343;28;20012;-68
2022/05/28 04:53:37;;;;;;;10.40;1.15;;;;;;;;;;5280411;28;20531;-68
2022/05/28 04:56:08;;;;;;;11.15;1.45;;;;;;;;;;5279564;28;20107;-68
2022/05/28 04:58:40;;;;;;;12.57;1.83;;;;;;;;;;5280592;28;20032;-68
2022/05/28 05:01:12;;;;;;;11.55;1.63;;;;;;;;;;5280246;28;20358;-68
2022/05/28 05:03:44;;;;;;;10.93;1.20;;;;;;;;;;5279577;28;20085;-68
2022/05/28 05:06:15;;;;;;;11.38;1.38;;;;;;;;;;5282679;28;20103;-68
2022/05/28 05:08:46;;;;;;;8.30;1.55;;;;;;;;;;5283470;28;20625;-68
2022/05/28 05:11:17;;;;;;;13.95;1.52;;;;;;;;;;5284074;28;20266;-68
2022/05/28 05:13:48;;;;;;;14.30;1.05;;;;;;;;;;5284059;28;20025;-68
2022/05/28 05:16:19;;;;;;;13.10;1.73;;;;;;;;;;5282827;28;20033;-68
2022/05/28 05:18:51;;;;;;;13.77;1.38;;;;;;;;;;5283911;28;20373;-68
2022/05/28 05:21:22;;;;;;;11.15;1.30;;;;;;;;;;5283722;28;20031;-68
2022/05/28 05:23:53;;;;;;;8.37;0.90;;;;;;;;;;5283328;28;20290;-68
2022/05/28 05:26:24;;;;;;;11.25;1.00;;;;;;;;;;5283299;28;20361;-68
2022/05/28 05:28:55;;;;;;;19.30;1.70;;;;;;;;;;5284050;28;20690;-67
2022/05/28 05:31:26;;;;;;;8.02;0.90;;;;;;;;;;5282524;28;20376;-67
2022/05/28 05:33:58;;;;;;;15.00;1.55;;;;;;;;;;5283855;28;20275;-67
2022/05/28 05:36:29;;;;;;;14.50;1.63;;;;;;;;;;5283350;28;20267;-68
2022/05/28 05:39:00;;;;;;;9.70;1.00;;;;;;;;;;5282996;28;20313;-68
2022/05/28 05:41:31;;;;;;;10.07;1.02;;;;;;;;;;5283406;28;20266;-68
2022/05/28 05:44:02;;;;;;;7.75;0.98;;;;;;;;;;5282592;28;20040;-67
2022/05/28 05:46:34;;;;;;;7.97;0.65;;;;;;;;;;5283377;28;20025;-67
2022/05/28 05:49:05;;;;;;;8.32;0.60;;;;;;;;;;5283391;28;20055;-66
2022/05/28 05:51:38;;;;;;;6.55;0.60;;;;;;;;;;5282446;28;20158;-67
2022/05/28 05:54:10;;;;;;;8.80;0.70;;;;;;;;;;5283072;28;20047;-66
2022/05/28 05:56:41;;;;;;;8.55;0.50;;;;;;;;;;5282827;28;20368;-67
2022/05/28 05:59:12;;;;;;;3.72;0.40;;;;;;;;;;5282327;28;20453;-67
2022/05/28 06:01:43;;;;;;;8.27;0.73;;;;;;;;;;5283156;28;20021;-67
2022/05/28 06:04:15;;;;;;;9.35;0.50;;;;;;;;;;5282846;28;20328;-67
2022/05/28 06:06:46;;;;;;;7.47;0.52;;;;;;;;;;5282175;28;20705;-67
2022/05/28 06:09:17;;;;;;;6.30;0.70;;;;;;;;;;5282724;28;20031;-67
2022/05/28 06:11:48;;;;;;;6.60;0.40;;;;;;;;;;5282804;28;20730;-67
2022/05/28 06:14:19;;;;;;;7.78;0.40;;;;;;;;;;5281654;28;20056;-68
2022/05/28 06:16:50;;;;;;;5.63;0.50;;;;;;;;;;5281951;28;20293;-68
2022/05/28 06:19:22;;;;;;;8.13;0.50;;;;;;;;;;5281569;28;20298;-68
2022/05/28 06:21:56;;;;;;;5.40;0.30;;;;;;;;;;5283203;28;20291;-67
2022/05/28 06:24:28;;;;;;;5.97;0.45;;;;;;;;;;5282418;28;20117;-67
2022/05/28 06:27:00;;;;;;;5.00;0.52;;;;;;;;;;5282194;28;20016;-67
2022/05/28 06:29:32;;;;;;;7.38;0.77;;;;;;;;;;5282385;28;20016;-68
2022/05/28 06:32:03;;;;;;;9.25;0.50;;;;;;;;;;5282400;28;20090;-67
2022/05/28 06:34:35;;;;;;;7.93;0.60;;;;;;;;;;5281461;28;20070;-67
2022/05/28 06:37:06;;;;;;;7.10;0.40;;;;;;;;;;5282418;28;20087;-68
2022/05/28 06:39:38;;;;;;;3.78;0.40;;;;;;;;;;5282308;28;20297;-67
2022/05/28 06:42:09;;;;;;;6.07;0.98;;;;;;;;;;5281381;28;20077;-66
2022/05/28 06:44:40;;;;;;;5.90;0.40;;;;;;;;;;5282343;28;20032;-69
2022/05/28 06:47:11;;;;;;;6.10;0.50;;;;;;;;;;5281344;28;20074;-67
2022/05/28 06:49:42;;;;;;;3.55;0.60;;;;;;;;;;5282523;28;20066;-67
2022/05/28 06:52:14;;;;;;;8.45;0.50;;;;;;;;;;5282493;28;20304;-67
2022/05/28 06:54:45;;;;;;;4.57;0.40;;;;;;;;;;5281320;28;20124;-67
2022/05/28 06:57:16;;;;;;;5.15;0.45;;;;;;;;;;5282086;28;20348;-67
2022/05/28 06:59:47;;;;;;;5.57;0.60;;;;;;;;;;5281890;28;20294;-67
2022/05/28 07:02:18;;;;;;;7.43;0.30;;;;;;;;;;5280795;28;20259;-67
2022/05/28 07:04:49;;;;;;;5.25;0.40;;;;;;;;;;5281979;28;20020;-68
2022/05/28 07:07:21;;;;;;;5.60;0.37;;;;;;;;;;5281100;28;20017;-67
2022/05/28 07:09:52;;;;;;;11.10;1.00;;;;;;;;;;5281344;28;20812;-67
2022/05/28 07:12:23;;;;;;;6.40;0.47;;;;;;;;;;5281569;28;20271;-68
2022/05/28 07:14:54;;;;;;;6.90;0.40;;;;;;;;;;5281910;28;20271;-68
2022/05/28 07:17:25;;;;;;;5.50;0.40;;;;;;;;;;5280575;28;20262;-67
2022/05/28 07:19:56;;;;;;;7.22;0.90;;;;;;;;;;5281530;28;20054;-67
2022/05/28 07:22:28;;;;;;;4.43;0.30;;;;;;;;;;5280413;28;20761;-68
2022/05/28 07:24:59;;;;;;;3.40;0.82;;;;;;;;;;5281407;28;20303;-67
2022/05/28 07:27:30;;;;;;;9.02;0.43;;;;;;;;;;5281194;28;20058;-67
2022/05/28 07:30:02;;;;;;;5.53;0.30;;;;;;;;;;5280545;28;20278;-67
2022/05/28 07:32:34;;;;;;;6.45;0.32;;;;;;;;;;5280879;28;20365;-67
2022/05/28 07:35:05;;;;;;;4.45;0.60;;;;;;;;;;5281454;28;20138;-67
2022/05/28 07:37:36;;;;;;;7.07;0.40;;;;;;;;;;5280486;28;20017;-67
2022/05/28 07:40:08;;;;;;;14.23;0.73;;;;;;;;;;5281448;28;20058;-67
2022/05/28 07:42:39;;;;;;;5.90;0.40;;;;;;;;;;5281211;28;20017;-68
2022/05/28 07:45:11;;;;;;;6.07;0.40;;;;;;;;;;5280721;28;20021;-67
2022/05/28 07:47:42;;;;;;;5.03;0.30;;;;;;;;;;5281297;28;20028;-67
2022/05/28 07:50:13;;;;;;;5.60;0.45;;;;;;;;;;5281138;28;20020;-67
2022/05/28 07:52:44;;;;;;;5.20;0.45;;;;;;;;;;5280256;28;20271;-68
2022/05/28 07:55:15;;;;;;;5.65;0.50;;;;;;;;;;5280253;28;20306;-67
2022/05/28 07:57:47;;;;;;;3.92;0.40;;;;;;;;;;5280284;28;20498;-68
2022/05/28 08:00:18;;;;;;;6.55;0.50;;;;;;;;;;5281148;28;20048;-68
2022/05/28 08:02:50;;;;;;;7.85;0.45;;;;;;;;;;5281465;28;20289;-67
2022/05/28 08:05:21;;;;;;;5.95;0.40;;;;;;;;;;5279578;28;20025;-68
2022/05/28 08:07:53;;;;;;;16.73;1.00;;;;;;;;;;5280947;28;20026;-69
2022/05/28 08:10:24;;;;;;;10.05;0.75;;;;;;;;;;5280517;28;20582;-68
2022/05/28 08:13:03;;;;;;;6.27;0.37;;;;;;;;;;5280378;28;20108;-69
2022/05/28 08:15:35;;;;;;;3.78;0.40;;;;;;;;;;5280934;28;20660;-69
2022/05/28 08:18:06;;;;;;;4.53;0.65;;;;;;;;;;5280583;28;20020;-69
2022/05/28 08:23:27;;;;;;;7.35;1.10;;;;;;;;;;5280181;28;20431;-69
2022/05/28 08:25:59;;;;;;;22.70;0.90;;;;;;;;;;5280262;28;20021;-69
2022/05/28 08:28:30;;;;;;;4.72;0.32;;;;;;;;;;5280141;28;20283;-69
2022/05/28 08:31:01;;;;;;;7.07;0.77;;;;;;;;;;5280905;28;20012;-69
2022/05/28 08:33:32;;;;;;;8.90;0.40;;;;;;;;;;5279928;28;20020;-69
2022/05/28 08:36:04;;;;;;;3.83;0.30;;;;;;;;;;5280719;28;20020;-69
2022/05/28 08:38:37;;;;;;;7.18;1.13;;;;;;;;;;5280312;28;20037;-69
2022/05/28 08:41:14;;;;;;;5.15;0.40;;;;;;;;;;5281801;28;20021;-69
2022/05/28 08:43:48;;;;;;;4.25;0.32;;;;;;;;;;5284307;28;20123;-69
2022/05/28 08:46:21;;;;;;;5.63;0.40;;;;;;;;;;5283831;28;20436;-69
2022/05/28 08:48:53;;;;;;;4.43;0.30;;;;;;;;;;5283841;28;20012;-68
2022/05/28 08:51:27;;;;;;;3.63;0.30;;;;;;;;;;5283697;28;20051;-68
2022/05/28 08:54:00;;;;;;;4.65;0.50;;;;;;;;;;5283793;28;20696;-68
2022/05/28 08:56:33;;;;;;;6.72;0.40;;;;;;;;;;5284202;28;20020;-68
2022/05/28 08:59:07;;;;;;;3.42;0.45;;;;;;;;;;5284372;28;20123;-70
2022/05/28 09:01:40;;;;;;;8.57;0.40;;;;;;;;;;5283530;28;20040;-69
2022/05/28 09:04:32;;;;;;;6.05;0.40;;;;;;;;;;5284433;28;20418;-69
2022/05/28 09:07:05;;;;;;;5.68;0.43;;;;;;;;;;5284152;28;20035;-69
2022/05/28 09:09:38;;;;;;;3.13;0.38;;;;;;;;;;5283249;28;20063;-70
2022/05/28 09:12:14;;;;;;;6.15;0.40;;;;;;;;;;5283635;28;20024;-68
2022/05/28 09:14:45;;;;;;;10.80;0.43;;;;;;;;;;5283212;28;20009;-70
2022/05/28 09:17:19;;;;;;;4.63;0.50;;;;;;;;;;5283872;28;20024;-69
2022/05/28 09:19:51;;;;;;;5.82;0.73;;;;;;;;;;5283765;28;20102;-69
2022/05/28 09:22:24;;;;;;;4.68;0.40;;;;;;;;;;5282466;28;20059;-71
2022/05/28 09:24:55;;;;;;;1.73;0.40;;;;;;;;;;5283787;28;20045;-71
2022/05/28 09:27:30;;;;;;;3.67;0.40;;;;;;;;;;5283639;28;20414;-71
2022/05/28 09:30:16;;;;;;;12.63;0.60;;;;;;;;;;5283236;28;20316;-71
2022/05/28 09:32:53;;;;;;;3.45;0.30;;;;;;;;;;5283811;28;20035;-71
2022/05/28 09:35:36;;;;;;;5.07;0.50;;;;;;;;;;5283738;28;20020;-71
2022/05/28 09:38:20;;;;;;;9.15;0.40;;;;;;;;;;5283137;28;20375;-70
2022/05/28 09:40:53;;;;;;;5.30;0.43;;;;;;;;;;5283864;28;20048;-70
2022/05/28 09:43:43;;;;;;;3.97;0.30;;;;;;;;;;5281894;28;20012;-70
2022/05/28 09:46:20;;;;;;;7.55;0.60;;;;;;;;;;5283464;28;20035;-69
2022/05/28 09:49:03;;;;;;;7.03;0.40;;;;;;;;;;5283865;28;20051;-69
2022/05/28 09:51:34;;;;;;;5.78;0.60;;;;;;;;;;5282565;28;20471;-69
2022/05/28 09:54:20;;;;;;;2.80;0.40;;;;;;;;;;5283508;28;20077;-69
2022/05/28 09:57:01;;;;;;;4.82;0.30;;;;;;;;;;5284078;28;20768;-69
2022/05/28 09:59:37;;;;;;;4.15;0.50;;;;;;;;;;5283145;28;20029;-69
2022/05/28 10:02:13;;;;;;;4.40;0.40;;;;;;;;;;5282958;28;20019;-69
2022/05/28 10:04:44;;;;;;;6.60;0.77;;;;;;;;;;5282444;28;20477;-69
2022/05/28 10:07:26;;;;;;;11.25;0.60;;;;;;;;;;5283193;28;20016;-71
2022/05/28 10:09:57;;;;;;;6.35;0.55;;;;;;;;;;5283456;28;20024;-69
2022/05/28 10:12:30;;;;;;;4.53;0.40;;;;;;;;;;5282035;28;20548;-69
2022/05/28 10:15:04;;;;;;;5.57;0.40;;;;;;;;;;5283120;28;20017;-69
2022/05/28 10:17:36;;;;;;;6.30;0.55;;;;;;;;;;5282872;28;20020;-68
2022/05/28 10:20:14;;;;;;;4.50;0.50;;;;;;;;;;5282063;28;20101;-68
2022/05/28 10:22:45;;;;;;;;;;;;;;;;;;5283141;28;20023;-68
2022/05/28 10:25:23;;;;;;;5.55;0.30;;;;;;;;;;5281736;28;19916;-69
2022/05/28 10:27:55;;;;;;;7.07;0.60;;;;;;;;;;5283152;28;20031;-69
2022/05/28 10:30:34;;;;;;;6.22;0.85;;;;;;;;;;5282901;28;20468;-69
2022/05/28 10:33:16;;;;;;;5.57;0.40;;;;;;;;;;5282145;28;20020;-69
2022/05/28 10:35:47;;;;;;;5.28;0.40;;;;;;;;;;5282793;28;20028;-69
2022/05/28 10:38:26;;;;;;;3.70;0.40;;;;;;;;;;5282538;28;20406;-69
2022/05/28 10:41:02;;;;;;;4.70;0.50;;;;;;;;;;5282348;28;20074;-69
2022/05/28 10:43:36;;;;;;;5.88;0.52;;;;;;;;;;5282115;28;20443;-70
2022/05/28 10:46:10;;;;;;;4.03;0.75;;;;;;;;;;5282238;28;20028;-70
2022/05/28 10:48:47;;;;;;;2.92;0.30;;;;;;;;;;5282518;28;20016;-70
2022/05/28 10:51:37;;;;;;;2.75;0.45;;;;;;;;;;5282178;28;20028;-69
2022/05/28 10:54:26;;;;;;;3.28;0.40;;;;;;;;;;5281364;28;20539;-70
2022/05/28 10:57:04;;;;;;;8.80;0.35;;;;;;;;;;5282741;28;20020;-71
2022/05/28 10:59:58;;;;;;;7.15;0.40;;;;;;;;;;5282364;28;20495;-69
2022/05/28 11:02:44;;;;;;;5.80;0.43;;;;;;;;;;5280819;28;20387;-69
2022/05/28 11:05:20;;;;;;;3.40;0.45;;;;;;;;;;5282160;28;20024;-69
2022/05/28 11:08:09;;;;;;;2.45;0.30;;;;;;;;;;5281758;28;20021;-69
2022/05/28 11:10:52;;;;;;;5.18;0.40;;;;;;;;;;5282059;28;20039;-69
2022/05/28 11:13:49;;;;;;;3.63;0.35;;;;;;;;;;5281423;28;20086;-69
2022/05/28 11:16:52;;;;;;;4.43;0.30;;;;;;;;;;5280746;28;20073;-69
2022/05/28 11:19:46;;;;;;;6.13;0.40;;;;;;;;;;5276723;28;20093;-69
2022/05/28 11:22:25;;;;;;;5.40;0.38;;;;;;;;;;5281185;28;20032;-68
2022/05/28 11:25:03;;;;;;;2.58;0.20;;;;;;;;;;5282060;28;20433;-68
2022/05/28 11:27:51;;;;;;;8.13;0.68;;;;;;;;;;5281603;28;20077;-68
2022/05/28 11:30:26;;;;;;;6.95;0.40;;;;;;;;;;5280666;28;20023;-69
2022/05/28 11:33:08;;;;;;;2.60;0.30;;;;;;;;;;5282077;28;20017;-69
2022/05/28 11:35:42;;;;;;;4.15;0.30;;;;;;;;;;5280990;28;20029;-69
2022/05/28 11:38:21;;;;;;;4.15;0.30;;;;;;;;;;5281303;28;20468;-68
2022/05/28 11:41:12;;;;;;;15.05;0.88;;;;;;;;;;5281895;28;20024;-69
2022/05/28 11:43:55;;;;;;;8.18;0.40;;;;;;;;;;5281096;28;20520;-68
2022/05/28 11:46:29;;;;;;;2.47;0.30;;;;;;;;;;5281168;28;20111;-68
2022/05/28 11:52:10;;;;;;;5.40;0.38;;;;;;;;;;5280966;28;20028;-71
2022/05/28 11:54:46;;;;;;;9.10;0.60;;;;;;;;;;5281577;28;20027;-70
2022/05/28 11:57:21;;;;;;;1.73;0.30;;;;;;;;;;5281380;28;20471;-70
2022/05/28 11:59:52;;;;;;;2.47;0.30;;;;;;;;;;5281535;28;20047;-70
2022/05/28 12:02:26;;;;;;;4.18;0.40;;;;;;;;;;5280989;28;20467;-70
2022/05/28 12:04:57;;;;;;;3.22;0.30;;;;;;;;;;5281039;28;20387;-70
2022/05/28 12:07:28;;;;;;;5.03;0.40;;;;;;;;;;5281035;28;20111;-70
2022/05/28 12:10:00;;;;;;;4.22;0.30;;;;;;;;;;5281957;28;20263;-70
2022/05/28 12:12:55;;;;;;;4.68;0.30;;;;;;;;;;5280706;28;20028;-70
2022/05/28 12:15:28;;;;;;;3.17;0.30;;;;;;;;;;5282269;28;20031;-70
2022/05/28 12:18:18;;;;;;;5.40;0.38;;;;;;;;;;5285453;28;20024;-70
2022/05/28 12:20:50;;;;;;;3.40;0.30;;;;;;;;;;5285864;28;20024;-70
2022/05/28 12:23:30;;;;;;;4.00;0.30;;;;;;;;;;5284951;28;20052;-71
2022/05/28 12:26:03;;;;;;;5.82;0.40;;;;;;;;;;5284846;28;20375;-70
2022/05/28 12:28:47;;;;;;;2.88;0.30;;;;;;;;;;5286270;28;20468;-71
2022/05/28 12:31:23;;;;;;;6.05;0.38;;;;;;;;;;5285071;28;20173;-71
2022/05/28 12:33:58;;;;;;;4.00;0.43;;;;;;;;;;5284738;28;20024;-71
2022/05/28 12:36:38;;;;;;;12.30;0.60;;;;;;;;;;5284858;28;20025;-71
2022/05/28 12:39:12;;;;;;;5.47;0.68;;;;;;;;;;5284509;28;20028;-70
2022/05/28 12:41:52;;;;;;;3.63;0.60;;;;;;;;;;5285157;28;20471;-70
2022/05/28 12:44:24;;;;;;;4.55;0.40;;;;;;;;;;5284738;28;20032;-70
2022/05/28 12:46:57;;;;;;;4.95;0.47;;;;;;;;;;5284422;28;20016;-70
2022/05/28 12:49:31;;;;;;;5.13;0.35;;;;;;;;;;5284671;28;20027;-71
2022/05/28 12:52:02;;;;;;;4.82;0.40;;;;;;;;;;5285149;28;20054;-71
2022/05/28 12:54:35;;;;;;;8.15;0.43;;;;;;;;;;5284074;28;20485;-70
2022/05/28 12:57:11;;;;;;;4.22;0.30;;;;;;;;;;5284594;28;20081;-70
2022/05/28 12:59:44;;;;;;;4.80;0.30;;;;;;;;;;5284559;28;20046;-70
2022/05/28 13:02:24;;;;;;;6.45;0.65;;;;;;;;;;5283670;28;20027;-70
2022/05/28 13:05:03;;;;;;;3.35;0.35;;;;;;;;;;5284851;28;20017;-70
2022/05/28 13:07:36;;;;;;;4.38;0.25;;;;;;;;;;5283551;28;20472;-71
2022/05/28 13:10:18;;;;;;;4.90;0.43;;;;;;;;;;5284401;28;20032;-68
2022/05/28 13:13:03;;;;;;;4.18;0.30;;;;;;;;;;5284555;28;20071;-71
2022/05/28 13:15:46;;;;;;;6.50;0.50;;;;;;;;;;5283360;28;20032;-70
2022/05/28 13:18:25;;;;;;;4.03;0.30;;;;;;;;;;5284147;28;20069;-71
2022/05/28 13:21:23;;;;;;;3.95;0.45;;;;;;;;;;5283863;28;20112;-70
2022/05/28 13:24:09;;;;;;;4.10;0.33;;;;;;;;;;5284125;28;20044;-70
2022/05/28 13:26:40;;;;;;;7.60;0.70;;;;;;;;;;5283337;28;20279;-70
2022/05/28 13:29:27;;;;;;;7.20;0.40;;;;;;;;;;5283324;28;20017;-71
2022/05/28 13:32:02;;;;;;;5.65;0.50;;;;;;;;;;5284396;28;20033;-69
2022/05/28 13:34:33;;;;;;;9.63;0.50;;;;;;;;;;5283505;28;20383;-68
2022/05/28 13:37:05;;;;;;;6.97;0.60;;;;;;;;;;5282999;28;20017;-68
2022/05/28 13:39:42;;;;;;;4.35;0.60;;;;;;;;;;5283721;28;20286;-68
2022/05/28 13:42:14;;;;;;;5.45;0.30;;;;;;;;;;5283258;28;20017;-69
2022/05/28 13:44:47;;;;;;;4.72;0.35;;;;;;;;;;5283825;28;20099;-68
2022/05/28 13:47:24;;;;;;;5.63;0.40;;;;;;;;;;5283533;28;20032;-68
2022/05/28 13:49:56;;;;;;;4.20;0.40;;;;;;;;;;5283337;28;20028;-68
2022/05/28 13:52:29;;;;;;;5.22;0.40;;;;;;;;;;5283272;28;20499;-68
2022/05/28 13:55:07;;;;;;;3.58;0.40;;;;;;;;;;5283744;28;20081;-69
2022/05/28 13:57:41;;;;;;;3.83;0.30;;;;;;;;;;5282933;28;20495;-68
2022/05/28 14:00:17;;;;;;;3.33;0.50;;;;;;;;;;5283505;28;20111;-69
2022/05/28 14:03:02;;;;;;;3.90;0.43;;;;;;;;;;5283484;28;20012;-68
2022/05/28 14:05:33;;;;;;;4.60;0.60;;;;;;;;;;5282547;28;20489;-69
2022/05/28 14:08:11;;;;;;;3.30;0.30;;;;;;;;;;5283347;28;20028;-69
2022/05/28 14:10:42;;;;;;;3.78;0.40;;;;;;;;;;5282738;28;20031;-69
2022/05/28 14:13:19;;;;;;;4.28;0.47;;;;;;;;;;5283284;28;20017;-69
2022/05/28 14:15:51;;;;;;;5.10;0.65;;;;;;;;;;5283506;28;20487;-68
2022/05/28 14:18:24;;;;;;;4.05;0.30;;;;;;;;;;5281990;28;20448;-69
2022/05/28 14:21:08;;;;;;;4.47;0.40;;;;;;;;;;5283637;28;20433;-69
2022/05/28 14:23:44;;;;;;;8.50;0.40;;;;;;;;;;5283022;28;20044;-69
2022/05/28 14:26:16;;;;;;;5.57;0.50;;;;;;;;;;5282288;28;20028;-69
2022/05/28 14:28:48;;;;;;;11.98;1.10;;;;;;;;;;5282751;28;20060;-69
2022/05/28 14:31:21;;;;;;;7.63;0.50;;;;;;;;;;5281927;28;20519;-69
2022/05/28 14:33:53;;;;;;;6.70;0.50;;;;;;;;;;5283081;28;20043;-69
2022/05/28 14:36:29;;;;;;;7.85;0.52;;;;;;;;;;5282522;28;20024;-69
2022/05/28 14:39:06;;;;;;;7.30;0.70;;;;;;;;;;5281192;28;20028;-69
2022/05/28 14:41:42;;;;;;;5.57;0.43;;;;;;;;;;5282798;28;20012;-69
2022/05/28 14:44:15;;;;;;;5.38;0.43;;;;;;;;;;5282861;28;20024;-69
2022/05/28 14:46:47;;;;;;;8.45;0.50;;;;;;;;;;5281231;28;20022;-70
2022/05/28 14:49:21;;;;;;;4.10;0.47;;;;;;;;;;5281382;28;20016;-69
2022/05/28 14:51:55;;;;;;;4.80;0.50;;;;;;;;;;5282828;28;20051;-69
2022/05/28 14:54:45;;;;;;;3.40;0.40;;;;;;;;;;5281525;28;20027;-69
2022/05/28 14:57:28;;;;;;;4.40;0.40;;;;;;;;;;5282420;28;20024;-69
2022/05/28 15:00:02;;;;;;;7.68;0.30;;;;;;;;;;5281434;28;20028;-69
2022/05/28 15:02:34;;;;;;;4.82;0.30;;;;;;;;;;5282129;28;20048;-69
2022/05/28 15:05:22;;;;;;;5.75;0.60;;;;;;;;;;5282204;28;20024;-68
2022/05/28 15:07:58;;;;;;;5.43;0.40;;;;;;;;;;5281525;28;20029;-68
2022/05/28 15:10:43;;;;;;;10.02;0.45;;;;;;;;;;5281891;28;20052;-68
2022/05/28 15:13:15;;;;;;;2.47;0.60;;;;;;;;;;5280974;28;20106;-69
2022/05/28 15:15:47;;;;;;;4.25;0.30;;;;;;;;;;5278101;28;20517;-69
2022/05/28 15:18:19;;;;;;;4.25;0.40;;;;;;;;;;5281610;28;20047;-68
2022/05/28 15:20:54;;;;;;;2.47;0.28;;;;;;;;;;5280940;28;20024;-67
2022/05/28 15:23:26;;;;;;;2.97;0.40;;;;;;;;;;5280744;28;20025;-68
2022/05/28 15:25:58;;;;;;;6.20;0.38;;;;;;;;;;5282305;28;20028;-68